Time;durP1;ratioP1;P1;durP2;ratioP2;P2;SDS_P1;SDS_P2;PMS_P1;PMS_P2;Temp;Humidity;BMP_temperature;BMP_pressure;BME280_temperature;BME280_humidity;BME280_pressure;Samples;Min_cycle;Max_cycle;Signal;HPM_P1;HPM_P2
2022/12/03 00:00:21;;;;;;;20.23;11.20;;;;;;;1.46;82.79;102535.72;6281054;22;20433;-77
2022/12/03 00:02:47;;;;;;;22.70;11.43;;;;;;;1.47;83.15;102533.84;6230193;22;20021;-77
2022/12/03 00:05:14;;;;;;;19.25;10.38;;;;;;;1.47;83.18;102529.38;6253771;22;20573;-77
2022/12/03 00:07:40;;;;;;;31.15;13.23;;;;;;;1.47;83.67;102525.97;6254411;22;20074;-77
2022/12/03 00:10:07;;;;;;;24.55;12.15;;;;;;;1.46;83.22;102527.84;6281311;22;20021;-77
2022/12/03 00:12:34;;;;;;;24.05;12.25;;;;;;;1.46;83.44;102530.47;6254542;22;20397;-78
2022/12/03 00:15:00;;;;;;;26.52;12.35;;;;;;;1.46;83.63;102521.81;6281587;22;20012;-77
2022/12/03 00:17:27;;;;;;;23.45;11.35;;;;;;;1.47;83.47;102523.34;6280573;22;20442;-77
2022/12/03 00:19:53;;;;;;;26.42;12.93;;;;;;;1.47;83.87;102525.97;6281507;22;20422;-77
2022/12/03 00:22:19;;;;;;;22.08;11.10;;;;;;;1.47;83.61;102520.72;6253851;22;20020;-77
2022/12/03 00:24:46;;;;;;;23.40;12.15;;;;;;;1.48;83.83;102522.25;6254412;22;20070;-77
2022/12/03 00:27:12;;;;;;;24.65;11.55;;;;;;;1.47;83.83;102524.13;6280992;22;20289;-77
2022/12/03 00:29:39;;;;;;;22.27;11.98;;;;;;;1.47;83.92;102525.97;6281380;22;20012;-77
2022/12/03 00:32:05;;;;;;;21.92;12.05;;;;;;;1.47;84.12;102529.38;6253917;22;20455;-77
2022/12/03 00:34:32;;;;;;;22.38;12.05;;;;;;;1.47;84.00;102516.25;6281581;22;20024;-77
2022/12/03 00:36:59;;;;;;;26.05;11.85;;;;;;;1.46;84.06;102519.19;6281638;22;20055;-77
2022/12/03 00:39:25;;;;;;;22.35;11.23;;;;;;;1.46;84.03;102513.94;6280953;22;20480;-77
2022/12/03 00:41:52;;;;;;;26.35;12.77;;;;;;;1.46;84.47;102508.69;6281548;22;20016;-77
2022/12/03 00:44:18;;;;;;;25.48;12.25;;;;;;;1.46;84.36;102498.19;6280991;22;20489;-77
2022/12/03 00:46:45;;;;;;;25.60;11.68;;;;;;;1.45;84.43;102497.44;6280756;22;20009;-78
2022/12/03 00:49:11;;;;;;;25.65;12.55;;;;;;;1.45;84.66;102499.31;6253534;22;20040;-78
2022/12/03 00:51:38;;;;;;;25.42;11.90;;;;;;;1.45;84.73;102497.44;6281570;22;20017;-77
2022/12/03 00:54:05;;;;;;;23.63;12.52;;;;;;;1.44;84.71;102500.41;6281118;22;20024;-77
2022/12/03 00:56:32;;;;;;;27.42;12.18;;;;;;;1.45;84.87;102496.69;6253798;22;20047;-77
2022/12/03 00:58:59;;;;;;;22.90;11.70;;;;;;;1.43;84.65;102494.38;6254024;22;20027;-77
2022/12/03 01:01:25;;;;;;;24.88;11.93;;;;;;;1.42;85.01;102500.72;6252929;22;20012;-77
2022/12/03 01:03:52;;;;;;;25.35;12.55;;;;;;;1.42;85.18;102486.84;6281168;22;20074;-77
2022/12/03 01:06:19;;;;;;;22.80;11.80;;;;;;;1.42;85.30;102492.09;6280855;22;20012;-77
2022/12/03 01:08:45;;;;;;;27.65;12.80;;;;;;;1.42;85.37;102490.22;6281280;22;20040;-77
2022/12/03 01:13:56;;;;;;;25.48;11.85;;;;;;;1.42;85.38;102482.34;6281156;22;20016;-77
2022/12/03 01:16:23;;;;;;;24.50;12.15;;;;;;;1.42;85.59;102479.72;6280353;22;20099;-77
2022/12/03 01:18:51;;;;;;;25.90;12.50;;;;;;;1.43;85.65;102476.00;6281067;22;20027;-77
2022/12/03 01:21:18;;;;;;;23.58;11.57;;;;;;;1.42;85.81;102477.09;6280843;22;20016;-77
2022/12/03 01:23:45;;;;;;;25.25;12.50;;;;;;;1.42;85.71;102479.72;6280889;22;20016;-77
2022/12/03 01:26:12;;;;;;;22.65;12.05;;;;;;;1.43;85.37;102480.50;6280617;22;20012;-77
2022/12/03 01:28:40;;;;;;;23.05;11.77;;;;;;;1.41;85.73;102472.97;6280946;22;20504;-77
2022/12/03 01:33:53;;;;;;;21.95;10.88;;;;;;;1.43;85.64;102476.00;6281006;22;20016;-77
2022/12/03 01:36:20;;;;;;;22.48;11.73;;;;;;;1.43;85.78;102472.63;6280467;22;20012;-77
2022/12/03 01:38:48;;;;;;;25.00;11.63;;;;;;;1.44;85.75;102480.16;6280882;22;20043;-77
2022/12/03 01:41:19;;;;;;;21.88;10.95;;;;;;;1.44;85.95;102477.53;6280743;22;20067;-78
2022/12/03 01:43:46;;;;;;;29.98;11.95;;;;;;;1.44;85.84;102477.53;6280700;22;20091;-78
2022/12/03 01:46:17;;;;;;;24.45;12.02;;;;;;;1.44;86.20;102474.16;6280310;22;20080;-77
2022/12/03 01:48:45;;;;;;;24.15;11.23;;;;;;;1.43;86.31;102473.38;6280821;22;20424;-78
2022/12/03 01:51:13;;;;;;;20.15;10.93;;;;;;;1.44;86.27;102474.91;6280539;22;20048;-79
2022/12/03 01:53:40;;;;;;;27.45;11.95;;;;;;;1.45;86.30;102476.44;6280993;22;20074;-78
2022/12/03 01:56:11;;;;;;;27.17;12.45;;;;;;;1.46;86.23;102474.59;6280699;22;20016;-79
2022/12/03 01:58:38;;;;;;;27.85;12.50;;;;;;;1.45;86.51;102473.81;6283902;22;20016;-76
2022/12/03 02:01:16;;;;;;;28.17;12.73;;;;;;;1.46;86.48;102469.34;6255960;22;20027;-80
2022/12/03 02:03:44;;;;;;;22.83;12.07;;;;;;;1.46;86.55;102477.97;6284291;22;20012;-76
2022/12/03 02:06:20;;;;;;;23.27;12.70;;;;;;;1.48;86.58;102472.38;6256362;22;20418;-77
2022/12/03 02:08:47;;;;;;;30.00;13.07;;;;;;;1.47;86.94;102465.59;6284141;22;20023;-77
2022/12/03 02:11:23;;;;;;;27.20;12.50;;;;;;;1.46;86.79;102470.09;6254084;22;20070;-76
2022/12/03 02:13:54;;;;;;;23.40;12.55;;;;;;;1.46;86.83;102467.47;6254074;22;20016;-77
2022/12/03 02:16:22;;;;;;;26.48;12.30;;;;;;;1.48;86.96;102467.91;6254464;22;20437;-77
2022/12/03 02:18:49;;;;;;;27.92;12.55;;;;;;;1.51;86.97;102474.34;6256828;22;20020;-77
2022/12/03 02:21:21;;;;;;;26.27;13.20;;;;;;;1.51;86.85;102469.09;6254711;22;20100;-77
2022/12/03 02:24:13;;;;;;;20.40;11.82;;;;;;;1.51;87.15;102471.72;6256186;22;20012;-77
2022/12/03 02:26:40;;;;;;;24.55;12.20;;;;;;;1.51;87.01;102466.47;6283887;22;20016;-77
2022/12/03 02:29:06;;;;;;;22.92;11.95;;;;;;;1.53;87.05;102469.53;6256198;22;20043;-78
2022/12/03 02:31:33;;;;;;;29.98;12.85;;;;;;;1.52;87.05;102465.38;6284153;22;20050;-78
2022/12/03 02:34:05;;;;;;;24.75;12.18;;;;;;;1.53;87.13;102467.66;6283941;22;20080;-78
2022/12/03 02:36:32;;;;;;;23.48;11.80;;;;;;;1.53;87.16;102464.28;6283562;22;20013;-78
2022/12/03 02:38:59;;;;;;;25.52;12.50;;;;;;;1.55;87.13;102473.34;6283735;22;20023;-77
2022/12/03 02:44:11;;;;;;;23.08;11.30;;;;;;;1.56;87.05;102460.97;6282675;22;20012;-77
2022/12/03 02:46:37;;;;;;;26.88;11.73;;;;;;;1.55;86.95;102460.22;6283956;22;20448;-77
2022/12/03 02:49:05;;;;;;;23.95;12.35;;;;;;;1.55;87.23;102454.97;6283508;22;20016;-78
2022/12/03 02:51:33;;;;;;;26.63;12.23;;;;;;;1.57;87.18;102460.66;6255875;22;20016;-78
2022/12/03 02:54:01;;;;;;;24.45;12.68;;;;;;;1.57;87.28;102452.00;6256194;22;20024;-79
2022/12/03 02:56:30;;;;;;;23.83;11.25;;;;;;;1.58;87.15;102454.31;6283083;22;20012;-78
2022/12/03 02:59:00;;;;;;;26.48;12.38;;;;;;;1.58;87.17;102462.19;6282492;22;20381;-78
2022/12/03 03:01:27;;;;;;;23.58;12.45;;;;;;;1.61;87.38;102452.84;6230598;22;20028;-78
2022/12/03 03:03:54;;;;;;;24.63;12.65;;;;;;;1.61;87.33;102455.47;6283365;22;20047;-78
2022/12/03 03:06:21;;;;;;;22.55;12.48;;;;;;;1.62;87.38;102451.75;6283220;22;20019;-78
2022/12/03 03:08:48;;;;;;;28.90;12.50;;;;;;;1.62;87.47;102454.38;6254899;22;20043;-78
2022/12/03 03:11:14;;;;;;;27.42;13.10;;;;;;;1.62;87.45;102444.63;6279017;22;20047;-78
2022/12/03 03:13:41;;;;;;;26.17;12.45;;;;;;;1.62;87.45;102436.00;6254749;22;20012;-78
2022/12/03 03:16:08;;;;;;;21.20;11.30;;;;;;;1.63;87.50;102438.28;6254156;22;20071;-78
2022/12/03 03:18:35;;;;;;;26.42;12.48;;;;;;;1.63;87.55;102440.91;6281655;22;20480;-78
2022/12/03 03:21:03;;;;;;;23.77;11.88;;;;;;;1.62;87.41;102436.75;6254306;22;20047;-78
2022/12/03 03:23:29;;;;;;;26.75;13.38;;;;;;;1.63;87.55;102438.28;6281353;22;20533;-78
2022/12/03 03:26:00;;;;;;;27.85;12.93;;;;;;;1.64;87.53;102439.81;6253964;22;20051;-78
2022/12/03 03:28:28;;;;;;;24.70;12.25;;;;;;;1.64;87.71;102436.41;6281185;22;20019;-78
2022/12/03 03:30:57;;;;;;;29.40;13.05;;;;;;;1.65;87.74;102436.09;6253842;22;20024;-78
2022/12/03 03:33:24;;;;;;;29.10;13.60;;;;;;;1.66;87.55;102434.97;6228717;22;20469;-78
2022/12/03 03:35:50;;;;;;;24.02;12.63;;;;;;;1.66;87.76;102431.59;6254378;22;20111;-78
2022/12/03 03:38:18;;;;;;;27.35;13.27;;;;;;;1.67;87.69;102425.25;6281268;22;20480;-78
2022/12/03 03:40:46;;;;;;;25.25;12.40;;;;;;;1.69;87.88;102430.91;6280959;22;20020;-79
2022/12/03 03:43:14;;;;;;;27.67;13.02;;;;;;;1.69;87.76;102428.28;6281267;22;20016;-78
2022/12/03 03:45:41;;;;;;;32.70;13.68;;;;;;;1.70;87.89;102429.06;6281247;22;20464;-78
2022/12/03 03:48:09;;;;;;;22.55;11.68;;;;;;;1.68;87.77;102427.53;6281301;22;20017;-78
2022/12/03 03:50:35;;;;;;;23.50;12.43;;;;;;;1.68;87.71;102421.53;6281487;22;20044;-78
2022/12/03 03:53:03;;;;;;;27.50;13.10;;;;;;;1.70;87.65;102424.56;6254547;22;20091;-77
2022/12/03 03:55:31;;;;;;;24.60;12.52;;;;;;;1.70;87.66;102421.94;6280545;22;20019;-78
2022/12/03 03:57:57;;;;;;;29.70;14.27;;;;;;;1.72;87.84;102418.97;6253952;22;20446;-77
2022/12/03 04:00:24;;;;;;;23.80;12.77;;;;;;;1.71;87.71;102423.47;6280957;22;20051;-77
2022/12/03 04:02:51;;;;;;;30.55;14.07;;;;;;;1.72;87.72;102418.97;6254366;22;20088;-78
2022/12/03 04:05:20;;;;;;;26.20;13.30;;;;;;;1.71;87.64;102412.97;6281208;22;20021;-77
2022/12/03 04:07:47;;;;;;;30.50;13.60;;;;;;;1.72;87.53;102418.97;6281609;22;20019;-77
2022/12/03 04:13:01;;;;;;;26.27;13.43;;;;;;;1.74;87.62;102412.28;6218728;22;20446;-77
2022/12/03 04:15:28;;;;;;;25.02;14.00;;;;;;;1.74;87.53;102409.66;6281205;22;20015;-78
2022/12/03 04:20:40;;;;;;;29.38;13.57;;;;;;;1.75;87.49;102410.44;6281101;22;20020;-77
2022/12/03 04:23:07;;;;;;;32.20;14.45;;;;;;;1.77;87.51;102408.22;6281281;22;20446;-77
2022/12/03 04:36:36;;;;;;;29.58;14.10;;;;;;;1.78;86.88;102399.25;6281378;22;20439;-77
2022/12/03 04:39:03;;;;;;;28.55;13.77;;;;;;;1.78;86.82;102401.88;6280700;22;20066;-77
2022/12/03 04:41:29;;;;;;;32.30;14.10;;;;;;;1.78;86.57;102404.50;6280904;22;20054;-77
2022/12/03 04:46:41;;;;;;;29.90;13.63;;;;;;;1.78;86.76;102399.25;6281248;22;20012;-77
2022/12/03 04:49:07;;;;;;;28.50;13.77;;;;;;;1.79;86.93;102396.28;6281093;22;20100;-77
2022/12/03 04:51:34;;;;;;;29.00;14.20;;;;;;;1.80;86.99;102391.81;6254277;22;20020;-77
2022/12/03 04:54:01;;;;;;;30.33;13.43;;;;;;;1.78;86.91;102389.50;6253803;22;20023;-77
2022/12/03 04:56:28;;;;;;;26.35;13.30;;;;;;;1.79;87.10;102400.78;6253360;22;20040;-77
2022/12/03 04:58:54;;;;;;;28.15;14.02;;;;;;;1.78;87.03;102400.03;6281064;22;20386;-77
2022/12/03 05:01:21;;;;;;;29.80;13.45;;;;;;;1.78;86.85;102401.88;6253613;22;20016;-76
2022/12/03 05:03:48;;;;;;;31.60;14.43;;;;;;;1.79;87.03;102393.66;6281081;22;20095;-76
2022/12/03 05:06:14;;;;;;;28.77;14.18;;;;;;;1.79;87.10;102392.91;6280783;22;20390;-78
2022/12/03 05:08:41;;;;;;;28.40;13.68;;;;;;;1.79;87.17;102391.03;6280428;22;20019;-76
2022/12/03 05:11:07;;;;;;;29.58;14.57;;;;;;;1.81;87.24;102398.59;6280834;22;20500;-77
2022/12/03 05:13:34;;;;;;;30.50;14.80;;;;;;;1.81;87.25;102398.59;6253778;22;20012;-77
2022/12/03 05:16:00;;;;;;;27.65;13.65;;;;;;;1.81;87.49;102398.59;6281097;22;20416;-77
2022/12/03 05:18:27;;;;;;;30.33;14.50;;;;;;;1.81;87.50;102395.97;6253790;22;20828;-77
2022/12/03 05:20:53;;;;;;;31.42;14.88;;;;;;;1.82;87.39;102389.59;6253962;22;20028;-77
2022/12/03 05:23:20;;;;;;;26.85;13.52;;;;;;;1.82;87.34;102389.59;6280274;22;20078;-77
2022/12/03 05:25:47;;;;;;;35.75;15.43;;;;;;;1.79;87.51;102395.53;6281270;22;20425;-77
2022/12/03 05:28:13;;;;;;;30.33;15.50;;;;;;;1.80;87.56;102389.94;6280592;22;20016;-77
2022/12/03 05:30:40;;;;;;;28.08;13.65;;;;;;;1.79;87.38;102388.41;6280930;22;20020;-77
2022/12/03 05:33:06;;;;;;;32.38;15.93;;;;;;;1.76;87.46;102385.69;6280431;22;20450;-77
2022/12/03 05:35:33;;;;;;;32.90;15.27;;;;;;;1.74;87.85;102385.28;6281125;22;20020;-77
2022/12/03 05:38:00;;;;;;;35.63;15.50;;;;;;;1.74;87.75;102388.66;6280381;22;20042;-78
2022/12/03 05:40:27;;;;;;;34.53;15.00;;;;;;;1.73;87.97;102391.63;6253333;22;20051;-77
2022/12/03 05:42:55;;;;;;;34.40;15.38;;;;;;;1.70;88.00;102384.44;6281069;22;20446;-77
2022/12/03 05:45:31;;;;;;;36.42;16.38;;;;;;;1.72;87.86;102384.84;6280049;22;20095;-77
2022/12/03 05:47:59;;;;;;;34.38;16.45;;;;;;;1.72;88.04;102392.72;6281056;22;20016;-77
2022/12/03 05:50:29;;;;;;;37.70;15.90;;;;;;;1.71;87.96;102378.06;6280388;22;20027;-78
2022/12/03 05:52:56;;;;;;;33.72;15.88;;;;;;;1.71;87.89;102381.47;6280436;22;20087;-77
2022/12/03 05:55:23;;;;;;;34.70;16.23;;;;;;;1.70;87.65;102368.66;6253576;22;20470;-77
2022/12/03 05:57:50;;;;;;;34.63;16.80;;;;;;;1.71;87.75;102378.84;6280776;22;20023;-77
2022/12/03 06:00:26;;;;;;;32.05;15.98;;;;;;;1.73;87.75;102366.13;6280168;22;20474;-77
2022/12/03 06:02:53;;;;;;;33.08;15.32;;;;;;;1.71;87.47;102367.56;6253453;22;20436;-77
2022/12/03 06:05:21;;;;;;;30.23;15.45;;;;;;;1.70;87.42;102363.41;6279730;22;20013;-77
2022/12/03 06:07:49;;;;;;;30.25;14.88;;;;;;;1.70;87.38;102368.66;6280750;22;20012;-77
2022/12/03 06:10:19;;;;;;;30.35;14.30;;;;;;;1.68;87.05;102361.91;6280400;22;20016;-77
2022/12/03 06:12:45;;;;;;;40.15;16.95;;;;;;;1.67;87.17;102357.75;6253542;22;20074;-76
2022/12/03 06:15:13;;;;;;;33.22;14.93;;;;;;;1.68;87.04;102367.16;6280385;22;20044;-79
2022/12/03 06:17:40;;;;;;;26.88;13.73;;;;;;;1.66;86.74;102350.22;6253923;22;20013;-78
2022/12/03 06:20:09;;;;;;;31.17;14.93;;;;;;;1.65;86.85;102349.44;6252792;22;20513;-78
2022/12/03 06:22:35;;;;;;;33.95;16.52;;;;;;;1.65;86.97;102357.31;6280920;22;20078;-77
2022/12/03 06:25:02;;;;;;;34.10;15.88;;;;;;;1.66;86.99;102339.72;6280996;22;20036;-77
2022/12/03 06:27:33;;;;;;;34.17;15.57;;;;;;;1.68;87.12;102354.03;6253562;22;20100;-78
2022/12/03 06:29:59;;;;;;;28.05;14.90;;;;;;;1.68;86.80;102354.03;6280958;22;20020;-77
2022/12/03 06:32:25;;;;;;;32.80;15.82;;;;;;;1.67;86.73;102346.47;6280473;22;20016;-77
2022/12/03 06:34:52;;;;;;;30.63;15.85;;;;;;;1.65;86.79;102349.44;6253369;22;20024;-78
2022/12/03 06:37:19;;;;;;;33.95;16.23;;;;;;;1.67;86.80;102351.72;6278551;22;20020;-77
2022/12/03 06:39:45;;;;;;;31.30;16.02;;;;;;;1.67;86.81;102352.50;6280480;22;20394;-78
2022/12/03 06:42:12;;;;;;;31.55;14.82;;;;;;;1.66;86.51;102350.97;6252920;22;20020;-77
2022/12/03 06:44:38;;;;;;;31.67;15.63;;;;;;;1.66;86.80;102352.84;6254039;22;20024;-77
2022/12/03 06:47:05;;;;;;;31.75;15.98;;;;;;;1.64;86.40;102355.78;6282105;22;20471;-77
2022/12/03 06:49:32;;;;;;;31.60;15.93;;;;;;;1.64;86.38;102347.91;6281095;22;20403;-77
2022/12/03 06:51:58;;;;;;;32.08;15.57;;;;;;;1.65;86.44;102354.69;6254810;22;20449;-77
2022/12/03 06:54:25;;;;;;;29.70;15.60;;;;;;;1.63;86.47;102346.41;6281752;22;20039;-77
2022/12/03 06:56:51;;;;;;;31.27;15.77;;;;;;;1.61;86.21;102353.09;6282020;22;20394;-77
2022/12/03 06:59:17;;;;;;;29.67;15.95;;;;;;;1.61;86.13;102345.97;6281487;22;20051;-78
2022/12/03 07:01:44;;;;;;;30.75;14.77;;;;;;;1.60;86.01;102351.59;6281701;22;20421;-78
2022/12/03 07:04:11;;;;;;;29.13;15.48;;;;;;;1.61;86.24;102345.97;6281139;22;20088;-77
2022/12/03 07:06:37;;;;;;;29.48;15.55;;;;;;;1.61;85.95;102353.09;6281768;22;20020;-78
2022/12/03 07:09:04;;;;;;;24.83;13.93;;;;;;;1.61;85.80;102356.47;6281792;22;20425;-77
2022/12/03 07:11:30;;;;;;;31.92;15.25;;;;;;;1.61;86.10;102353.84;6254165;22;20019;-77
2022/12/03 07:13:58;;;;;;;30.17;15.15;;;;;;;1.61;86.20;102359.09;6281560;22;20047;-77
2022/12/03 07:16:31;;;;;;;30.52;15.45;;;;;;;1.61;85.91;102353.84;6253770;22;20016;-77
2022/12/03 07:18:57;;;;;;;30.45;15.25;;;;;;;1.59;85.84;102350.81;6253617;22;20027;-78
2022/12/03 07:21:24;;;;;;;30.33;14.80;;;;;;;1.58;85.61;102361.66;6281109;22;20445;-77
2022/12/03 07:23:50;;;;;;;29.35;15.38;;;;;;;1.56;85.65;102364.63;6281573;22;20016;-77
2022/12/03 07:26:17;;;;;;;27.67;14.82;;;;;;;1.57;85.51;102363.53;6280991;22;20021;-77
2022/12/03 07:28:43;;;;;;;32.67;15.65;;;;;;;1.55;85.43;102363.09;6281648;22;20421;-77
2022/12/03 07:31:10;;;;;;;30.40;15.70;;;;;;;1.54;85.33;102360.81;6281164;22;20063;-77
2022/12/03 07:33:36;;;;;;;29.50;16.00;;;;;;;1.54;85.47;102366.06;6281192;22;20019;-77
2022/12/03 07:36:03;;;;;;;26.40;13.23;;;;;;;1.54;85.32;102379.19;6281541;22;20023;-77
2022/12/03 07:38:29;;;;;;;27.40;13.82;;;;;;;1.52;85.36;102370.88;6253758;22;20024;-78
2022/12/03 07:40:56;;;;;;;29.25;15.57;;;;;;;1.52;85.57;102374.28;6281436;22;20099;-77
2022/12/03 07:43:22;;;;;;;29.85;15.15;;;;;;;1.50;85.72;102373.06;6281560;22;20047;-78
2022/12/03 07:45:49;;;;;;;27.75;14.95;;;;;;;1.49;85.62;102369.69;6281277;22;20095;-79
2022/12/03 07:48:15;;;;;;;33.72;15.80;;;;;;;1.51;85.91;102369.34;6281681;22;20023;-79
2022/12/03 07:50:42;;;;;;;33.42;16.27;;;;;;;1.50;85.79;102367.81;6282313;22;20044;-79
2022/12/03 07:53:08;;;;;;;33.50;16.42;;;;;;;1.52;86.01;102370.88;6280419;22;20066;-79
2022/12/03 07:55:35;;;;;;;27.92;15.45;;;;;;;1.51;86.04;102367.50;6278870;22;20016;-79
2022/12/03 07:58:01;;;;;;;37.38;16.35;;;;;;;1.51;86.27;102374.59;6279539;22;20047;-78
2022/12/03 08:00:28;;;;;;;30.45;16.38;;;;;;;1.51;86.25;102370.13;6252357;22;20020;-81
2022/12/03 08:02:55;;;;;;;31.13;16.13;;;;;;;1.50;86.40;102367.81;6280613;22;20521;-80
2022/12/03 08:05:21;;;;;;;36.90;15.48;;;;;;;1.48;86.35;102360.28;6254567;22;20481;-81
2022/12/03 08:07:47;;;;;;;32.65;15.95;;;;;;;1.45;86.45;102360.19;6282123;22;20021;-80
2022/12/03 08:10:14;;;;;;;32.38;15.43;;;;;;;1.45;86.64;102360.19;6281859;22;20022;-80
2022/12/03 08:12:41;;;;;;;43.92;16.40;;;;;;;1.46;86.56;102365.13;6282039;22;20438;-80
2022/12/03 08:15:18;;;;;;;30.08;15.00;;;;;;;1.46;86.84;102359.88;6281756;22;20077;-80
2022/12/03 08:17:50;;;;;;;30.98;14.65;;;;;;;1.49;86.95;102366.31;6281643;22;20016;-80
2022/12/03 08:20:20;;;;;;;31.42;15.18;;;;;;;1.49;86.68;102355.81;6281996;22;20062;-80
2022/12/03 08:22:49;;;;;;;34.88;17.30;;;;;;;1.48;86.85;102355.03;6282230;22;20027;-82
2022/12/03 08:25:19;;;;;;;34.78;16.40;;;;;;;1.50;86.89;102357.34;6282776;22;20434;-84
2022/12/03 08:27:45;;;;;;;32.97;15.05;;;;;;;1.49;87.06;102347.94;6256205;22;20354;-81
2022/12/03 08:30:14;;;;;;;36.03;16.33;;;;;;;1.50;87.13;102349.47;6255294;22;20012;-81
2022/12/03 08:32:41;;;;;;;34.70;17.05;;;;;;;1.51;87.13;102354.38;6255283;22;20022;-83
2022/12/03 08:35:13;;;;;;;32.50;15.32;;;;;;;1.52;87.00;102353.28;6254816;22;20020;-79
2022/12/03 08:37:40;;;;;;;34.17;15.68;;;;;;;1.50;86.84;102350.22;6254936;22;20074;-80
2022/12/03 08:40:24;;;;;;;32.50;15.95;;;;;;;1.49;86.82;102358.44;6281785;22;20043;-79
2022/12/03 08:42:50;;;;;;;34.92;15.50;;;;;;;1.48;86.78;102352.41;6255006;22;20012;-81
2022/12/03 08:45:30;;;;;;;34.22;16.20;;;;;;;1.46;86.81;102352.00;6281329;22;20023;-79
2022/12/03 08:47:59;;;;;;;38.53;17.10;;;;;;;1.46;86.90;102346.75;6282499;22;20434;-79
2022/12/03 08:50:27;;;;;;;38.72;16.25;;;;;;;1.45;86.86;102353.09;6281941;22;20012;-80
2022/12/03 08:52:58;;;;;;;32.08;15.73;;;;;;;1.43;86.67;102349.28;6254455;22;20016;-82
2022/12/03 08:55:32;;;;;;;35.47;16.38;;;;;;;1.42;86.63;102345.88;6229340;22;20017;-78
2022/12/03 08:57:59;;;;;;;36.00;16.23;;;;;;;1.42;86.71;102340.63;6282001;22;20469;-79
2022/12/03 09:00:25;;;;;;;35.08;16.13;;;;;;;1.43;86.74;102349.28;6253606;22;20024;-78
2022/12/03 09:02:57;;;;;;;32.88;15.82;;;;;;;1.40;86.72;102348.09;6229192;22;20031;-78
2022/12/03 09:05:28;;;;;;;33.65;16.17;;;;;;;1.42;86.69;102350.38;6254586;22;20087;-79
2022/12/03 09:07:55;;;;;;;32.08;16.13;;;;;;;1.41;86.83;102347.00;6280962;22;20020;-79
2022/12/03 09:10:21;;;;;;;39.25;17.63;;;;;;;1.40;86.43;102347.31;6281721;22;20390;-79
2022/12/03 09:12:48;;;;;;;29.27;15.57;;;;;;;1.42;86.76;102338.00;6254786;22;20499;-79
2022/12/03 09:15:14;;;;;;;36.35;16.08;;;;;;;1.42;86.64;102340.63;6281097;22;20048;-79
2022/12/03 09:17:41;;;;;;;32.05;15.43;;;;;;;1.43;86.28;102336.16;6254328;22;20054;-79
2022/12/03 09:20:08;;;;;;;31.23;16.17;;;;;;;1.40;86.26;102334.97;6254857;22;20035;-80
2022/12/03 09:22:35;;;;;;;36.72;17.08;;;;;;;1.40;86.48;102337.59;6281819;22;20442;-78
2022/12/03 09:25:01;;;;;;;35.38;15.98;;;;;;;1.37;85.87;102335.63;6281785;22;20091;-78
2022/12/03 09:27:28;;;;;;;29.48;14.90;;;;;;;1.35;86.15;102329.97;6254245;22;20024;-78
2022/12/03 09:29:54;;;;;;;36.63;15.95;;;;;;;1.36;86.16;102328.88;6253756;22;20016;-78
2022/12/03 09:32:24;;;;;;;39.13;17.80;;;;;;;1.39;86.29;102332.69;6254766;22;20089;-79
2022/12/03 09:34:51;;;;;;;31.42;14.90;;;;;;;1.39;86.17;102333.44;6281629;22;20016;-78
2022/12/03 09:37:18;;;;;;;35.90;16.85;;;;;;;1.38;86.23;102334.53;6281595;22;20084;-78
2022/12/03 09:39:44;;;;;;;38.00;17.40;;;;;;;1.39;86.53;102336.06;6281452;22;20020;-78
2022/12/03 09:42:11;;;;;;;34.67;15.40;;;;;;;1.36;86.37;102333.34;6254835;22;20016;-78
2022/12/03 09:44:38;;;;;;;37.28;15.05;;;;;;;1.30;86.06;102343.31;6280372;22;20012;-78
2022/12/03 09:47:05;;;;;;;34.67;13.60;;;;;;;1.25;85.64;102333.06;6254792;22;20024;-79
2022/12/03 09:49:35;;;;;;;33.03;14.02;;;;;;;1.23;85.77;102337.91;6282030;22;20017;-79
2022/12/03 09:52:04;;;;;;;33.45;14.13;;;;;;;1.25;85.65;102336.47;6281758;22;20070;-79
2022/12/03 09:54:31;;;;;;;33.33;13.88;;;;;;;1.27;84.92;102334.25;6253978;22;20500;-79
2022/12/03 09:57:01;;;;;;;35.55;13.35;;;;;;;1.27;84.63;102344.75;6253906;22;20040;-79
2022/12/03 09:59:33;;;;;;;28.17;12.40;;;;;;;1.26;84.00;102332.75;6253111;22;20534;-78
2022/12/03 10:02:00;;;;;;;29.27;11.98;;;;;;;1.26;83.44;102332.75;6253833;22;20025;-78
2022/12/03 10:04:28;;;;;;;34.35;13.32;;;;;;;1.27;83.37;102334.25;6254362;22;20067;-79
2022/12/03 10:06:56;;;;;;;30.13;12.25;;;;;;;1.29;82.88;102334.69;6281243;22;20058;-76
2022/12/03 10:09:25;;;;;;;32.85;12.82;;;;;;;1.28;82.95;102343.66;6281333;22;20012;-78
2022/12/03 10:11:51;;;;;;;26.77;11.25;;;;;;;1.30;83.25;102348.56;6280816;22;20020;-78
2022/12/03 10:14:18;;;;;;;30.40;12.75;;;;;;;1.28;83.06;102350.78;6281507;22;20386;-78
2022/12/03 10:16:45;;;;;;;31.02;12.43;;;;;;;1.29;83.59;102344.44;6254404;22;20043;-78
2022/12/03 10:19:20;;;;;;;39.45;14.18;;;;;;;1.28;84.09;102340.28;6282225;22;20476;-78
2022/12/03 10:21:46;;;;;;;31.58;13.15;;;;;;;1.25;84.48;102344.34;6255802;22;20024;-78
2022/12/03 10:24:27;;;;;;;37.15;13.02;;;;;;;1.22;84.51;102347.63;6282634;22;20463;-78
2022/12/03 10:26:56;;;;;;;36.33;13.97;;;;;;;1.20;84.42;102336.69;6282210;22;20091;-78
2022/12/03 10:29:29;;;;;;;40.20;12.93;;;;;;;1.20;84.86;102335.97;6255455;22;20442;-79
2022/12/03 10:32:05;;;;;;;32.15;13.15;;;;;;;1.20;84.81;102341.22;6255253;22;20021;-79
2022/12/03 10:34:37;;;;;;;38.70;13.43;;;;;;;1.19;84.72;102335.22;6254270;22;20019;-77
2022/12/03 10:37:11;;;;;;;41.88;13.75;;;;;;;1.20;84.99;102326.22;6255227;22;20095;-77
2022/12/03 10:40:13;;;;;;;37.28;14.38;;;;;;;1.21;85.21;102330.34;6282407;22;20096;-77
2022/12/03 10:42:40;;;;;;;33.08;12.68;;;;;;;1.16;85.33;102329.88;6187418;23;20468;-78
2022/12/03 10:45:22;;;;;;;33.33;14.80;;;;;;;1.13;85.38;102307.69;6187738;23;20021;-78
2022/12/03 10:48:04;;;;;;;32.63;13.68;;;;;;;1.14;85.67;102313.69;6188347;23;20097;-78
2022/12/03 10:50:32;;;;;;;31.27;13.70;;;;;;;1.13;85.00;102310.31;6163068;23;20022;-78
2022/12/03 10:52:58;;;;;;;33.80;13.68;;;;;;;1.11;85.10;102303.88;6188344;23;20049;-78
2022/12/03 10:55:27;;;;;;;35.95;14.88;;;;;;;1.11;84.89;102306.50;6187787;23;20021;-78
2022/12/03 10:57:54;;;;;;;32.88;13.85;;;;;;;1.11;84.55;102303.88;6188002;23;20416;-78
2022/12/03 11:00:21;;;;;;;34.90;14.40;;;;;;;1.09;84.50;102298.22;6188197;23;20101;-78
2022/12/03 11:02:48;;;;;;;34.05;15.35;;;;;;;1.12;84.38;102300.91;6163285;23;20021;-78
2022/12/03 11:05:28;;;;;;;39.35;14.68;;;;;;;1.11;84.16;102291.53;6188331;23;20098;-78
2022/12/03 11:07:55;;;;;;;33.28;14.18;;;;;;;1.13;84.08;102299.06;6163314;23;20379;-78
2022/12/03 11:10:22;;;;;;;31.77;14.43;;;;;;;1.12;83.92;102289.66;6187709;23;20089;-79
2022/12/03 11:13:26;;;;;;;30.80;13.38;;;;;;;1.07;83.96;102293.28;6163199;23;20049;-80
2022/12/03 11:15:53;;;;;;;35.47;13.52;;;;;;;0.98;83.85;102292.69;6178399;22;20016;-82
2022/12/03 11:18:34;;;;;;;36.25;13.10;;;;;;;0.98;84.08;102280.34;6256276;22;20020;-80
2022/12/03 11:21:12;;;;;;;36.80;13.80;;;;;;;1.01;84.21;102278.91;6282934;22;20052;-79
2022/12/03 11:23:44;;;;;;;29.08;12.13;;;;;;;1.02;83.72;102282.28;6282693;22;20012;-79
2022/12/03 11:26:14;;;;;;;30.30;13.20;;;;;;;1.00;83.88;102278.13;6254707;22;20012;-79
2022/12/03 11:28:44;;;;;;;32.97;13.35;;;;;;;1.03;83.55;102270.69;6282562;22;20062;-79
2022/12/03 11:31:33;;;;;;;32.80;13.05;;;;;;;1.01;83.71;102276.28;6282646;22;20342;-78
2022/12/03 11:34:32;;;;;;;27.98;12.25;;;;;;;0.97;83.77;102270.94;6255319;22;20460;-79
2022/12/03 11:37:11;;;;;;;27.60;12.23;;;;;;;0.98;83.49;102264.59;6254988;22;20454;-78
2022/12/03 11:39:43;;;;;;;26.88;12.13;;;;;;;0.99;83.32;102270.59;6254405;22;20477;-78
2022/12/03 11:42:25;;;;;;;26.33;11.85;;;;;;;0.98;83.54;102261.97;6255071;22;20128;-78
2022/12/03 11:45:10;;;;;;;20.33;10.35;;;;;;;1.04;83.15;102257.25;6254229;22;20020;-79
2022/12/03 11:47:45;;;;;;;21.92;9.57;;;;;;;0.98;82.79;102251.47;6282403;22;20017;-78
2022/12/03 11:50:27;;;;;;;25.45;11.13;;;;;;;1.01;82.97;102247.44;6282277;22;20091;-77